createdAt,value
2019-04-16T14:17:12.049Z,23.64
2019-04-16T14:17:59.030Z,23.58
2019-04-16T14:18:34.200Z,23.34
2019-04-16T14:59:02.269Z,23.08
2019-04-16T14:59:50.129Z,23.04
2019-04-16T15:02:11.482Z,23.09
2019-04-16T15:02:52.943Z,23.14
2019-04-16T15:05:08.047Z,23.32
2019-04-16T15:05:48.817Z,23.32
2019-04-16T15:06:29.497Z,23.39
2019-04-16T15:07:10.366Z,23.43
2019-04-16T15:07:51.136Z,23.42
2019-04-16T15:08:31.873Z,23.35
2019-04-16T15:09:12.592Z,23.38
2019-04-16T15:09:53.308Z,23.32
2019-04-16T15:10:34.097Z,23.4
2019-04-16T15:11:14.922Z,23.29
2019-04-16T15:11:57.939Z,23.35
2019-04-16T15:12:37.354Z,23.27
2019-04-16T15:13:18.104Z,23.22
2019-04-16T15:13:59.399Z,23.23
2019-04-16T15:14:42.451Z,23.23
2019-04-16T15:15:23.425Z,23.22
2019-04-16T15:16:08.877Z,23.15
2019-04-16T15:16:44.929Z,23.15
2019-04-16T15:17:26.222Z,23.09
2019-04-16T15:18:06.523Z,23.01
2019-04-16T15:18:47.965Z,23.01
2019-04-16T15:19:31.672Z,23.01
2019-04-16T15:20:14.156Z,23.01
2019-04-16T15:20:55.275Z,23.04
2019-04-16T15:21:36.501Z,22.97
2019-04-16T15:22:17.330Z,23.02
2019-04-16T15:22:58.045Z,22.9
2019-04-16T15:23:38.746Z,22.94
2019-04-16T15:24:19.511Z,22.97
2019-04-16T15:26:07.674Z,22.77
2019-04-16T15:26:53.270Z,22.87
2019-04-16T15:27:32.555Z,22.94
2019-04-16T15:28:13.030Z,23.01
2019-04-16T15:28:54.023Z,23.04
2019-04-16T15:29:35.395Z,23.04
2019-04-16T15:30:17.927Z,22.86
2019-04-16T15:31:04.804Z,22.93
2019-04-16T15:31:44.903Z,23.04
2019-04-16T15:32:25.696Z,22.97
2019-04-16T15:33:07.284Z,23.09
2019-04-16T15:33:48.137Z,23.04
2019-04-16T15:34:29.234Z,22.93
2019-04-16T15:35:13.795Z,23.07
2019-04-16T15:35:51.314Z,22.92
2019-04-16T15:36:31.931Z,23.04
2019-04-16T15:37:12.731Z,23.02
2019-04-16T15:37:54.552Z,22.97
2019-04-16T15:38:34.435Z,23.11
2019-04-16T15:39:15.346Z,23.09
2019-04-16T15:39:59.162Z,22.9
2019-04-16T15:40:40.100Z,22.94
2019-04-16T15:41:17.972Z,22.93
2019-04-16T15:41:58.925Z,22.92
2019-04-16T15:42:41.126Z,22.94
2019-04-16T15:43:23.324Z,22.93
2019-04-16T15:44:07.954Z,22.99
2019-04-16T15:44:48.948Z,22.9
2019-04-16T15:45:30.137Z,23.07
2019-04-16T15:46:24.950Z,22.93
2019-04-16T15:46:51.764Z,22.97
2019-04-16T15:47:32.813Z,22.9
2019-04-16T15:48:17.801Z,22.93
2019-04-16T15:49:01.758Z,22.86
2019-04-16T15:49:44.617Z,22.82
2019-04-16T15:50:25.463Z,22.94
2019-04-16T15:51:07.247Z,22.86
2019-04-16T15:51:50.821Z,22.96
2019-04-16T15:52:30.539Z,22.97
2019-04-16T15:53:11.343Z,22.94
2019-04-16T15:53:52.214Z,22.92
2019-04-16T15:54:34.221Z,22.89
2019-04-16T15:55:14.966Z,22.94
2019-04-16T15:55:56.044Z,22.94
2019-04-16T15:56:37.518Z,22.87
2019-04-16T15:57:21.455Z,22.87
2019-04-16T15:58:07.668Z,22.82
2019-04-16T15:58:50.100Z,22.9
2019-04-16T15:59:33.362Z,22.86
2019-04-16T16:00:18.029Z,22.82
2019-04-16T16:01:01.306Z,22.75
2019-04-16T16:01:43.185Z,22.83
2019-04-16T16:02:25.397Z,22.86
2019-04-16T16:03:06.258Z,22.74
2019-04-16T16:03:47.903Z,22.82
2019-04-16T16:04:29.682Z,22.78
2019-04-16T16:05:11.085Z,22.8
2019-04-16T16:05:52.449Z,22.89
2019-04-16T16:06:33.877Z,22.86
2019-04-16T16:07:16.009Z,22.82
2019-04-16T16:07:57.896Z,22.87
2019-04-16T16:08:38.256Z,22.96
2019-04-16T16:09:19.235Z,23.01
2019-04-16T16:10:00.023Z,23.04
2019-04-16T16:10:45.069Z,22.9
2019-04-16T16:11:21.539Z,23.02
2019-04-16T16:12:02.635Z,22.96
2019-04-16T16:12:43.300Z,22.9
2019-04-16T16:13:26.258Z,23.07
2019-04-16T16:14:05.312Z,22.94
2019-04-16T16:14:47.183Z,22.92
2019-04-16T16:15:28.133Z,22.96
2019-04-16T16:16:10.272Z,22.94
2019-04-16T16:16:50.693Z,22.94
2019-04-16T16:17:30.453Z,22.93
2019-04-16T16:18:11.409Z,22.96
2019-04-16T16:18:52.300Z,22.93
2019-04-16T16:19:33.166Z,22.97
2019-04-16T16:20:13.961Z,22.92
2019-04-16T16:20:55.613Z,22.93
2019-04-16T16:21:37.712Z,22.77
2019-04-16T16:22:18.616Z,22.84
2019-04-16T16:22:59.807Z,22.78
2019-04-16T16:23:40.615Z,22.89
2019-04-16T16:24:21.533Z,22.82
2019-04-16T16:25:05.434Z,22.83
2019-04-16T16:25:43.453Z,22.8
2019-04-16T16:26:24.334Z,22.84
2019-04-16T16:27:05.429Z,22.82
2019-04-16T16:27:47.105Z,22.84
2019-04-16T16:28:27.105Z,22.83
2019-04-16T16:29:07.871Z,22.84
2019-04-16T16:29:48.718Z,22.86
2019-04-16T16:30:29.513Z,22.78
2019-04-16T16:31:10.326Z,22.84
2019-04-16T16:31:51.188Z,22.8
2019-04-16T16:32:32.127Z,22.86
2019-04-16T16:33:12.895Z,22.77
2019-04-16T16:33:54.023Z,22.94
2019-04-16T16:34:34.592Z,22.9
2019-04-16T16:35:17.700Z,22.84
2019-04-16T16:35:57.990Z,22.78
2019-04-16T16:36:40.424Z,22.8
2019-04-16T16:37:18.088Z,22.87
2019-04-16T16:37:58.856Z,22.83
2019-04-16T16:38:39.557Z,22.86
2019-04-16T16:39:20.356Z,22.9
2019-04-16T16:40:01.178Z,22.87
2019-04-16T16:40:41.904Z,22.87
2019-04-16T16:41:22.788Z,22.82
2019-04-16T16:42:03.538Z,22.83
2019-04-16T16:42:44.345Z,22.78
2019-04-16T16:43:25.215Z,22.92
2019-04-16T16:44:05.983Z,22.82
2019-04-16T16:44:47.172Z,22.84
2019-04-16T16:45:27.980Z,22.77
2019-04-16T16:46:08.766Z,22.77
2019-04-16T16:46:56.333Z,22.82
2019-04-16T16:47:30.307Z,22.8
2019-04-16T16:48:11.046Z,22.78
2019-04-16T16:48:51.893Z,22.83
2019-04-16T16:49:32.774Z,22.82
2019-04-16T16:50:13.559Z,22.87
2019-04-16T16:50:54.336Z,22.86
2019-04-16T16:51:35.091Z,22.82
2019-04-16T16:52:15.898Z,22.74
2019-04-16T16:52:56.654Z,22.78
2019-04-16T16:53:37.821Z,22.77
2019-04-16T16:54:18.438Z,22.83
2019-04-16T16:54:59.267Z,22.82
2019-04-16T16:55:40.112Z,22.87
2019-04-16T16:56:21.086Z,22.84
2019-04-16T16:57:02.992Z,22.97
2019-04-16T16:57:42.374Z,22.92
2019-04-16T16:58:23.373Z,22.78
2019-04-16T16:59:04.173Z,22.87
2019-04-16T16:59:44.974Z,22.89
2019-04-16T17:00:25.764Z,22.82
2019-04-16T17:01:06.526Z,22.84
2019-04-16T17:01:47.368Z,22.78
2019-04-16T17:02:28.097Z,22.94
2019-04-16T17:03:10.216Z,22.93
2019-04-16T17:03:52.522Z,22.93
2019-04-16T17:05:22.419Z,22.97
2019-04-16T17:06:04.800Z,22.94
2019-04-16T17:06:47.784Z,22.96
2019-04-16T17:07:31.541Z,22.96
2019-04-16T17:08:14.195Z,22.96
2019-04-16T17:08:56.651Z,22.99
